sensor_id;sensor_type;location;lat;lon;timestamp;P1;durP1;ratioP1;P2;durP2;ratioP2
76259;SDS011;65076;52.362;6.588;2023-07-31T00:01:04;1.98;;;1.20;;
76259;SDS011;65076;52.362;6.588;2023-07-31T00:03:32;2.00;;;1.35;;
76259;SDS011;65076;52.362;6.588;2023-07-31T00:06:00;1.63;;;1.23;;
76259;SDS011;65076;52.362;6.588;2023-07-31T00:08:28;2.58;;;1.20;;
76259;SDS011;65076;52.362;6.588;2023-07-31T00:10:56;2.17;;;1.77;;
76259;SDS011;65076;52.362;6.588;2023-07-31T00:13:25;0.95;;;0.85;;
76259;SDS011;65076;52.362;6.588;2023-07-31T00:15:53;2.00;;;1.30;;
76259;SDS011;65076;52.362;6.588;2023-07-31T00:18:22;2.80;;;1.50;;
76259;SDS011;65076;52.362;6.588;2023-07-31T00:20:49;1.67;;;1.00;;
76259;SDS011;65076;52.362;6.588;2023-07-31T00:23:17;2.15;;;0.90;;
76259;SDS011;65076;52.362;6.588;2023-07-31T00:25:45;3.85;;;1.08;;
76259;SDS011;65076;52.362;6.588;2023-07-31T00:28:13;2.70;;;1.25;;
76259;SDS011;65076;52.362;6.588;2023-07-31T00:30:43;1.55;;;0.95;;
76259;SDS011;65076;52.362;6.588;2023-07-31T00:33:11;1.67;;;1.17;;
76259;SDS011;65076;52.362;6.588;2023-07-31T00:35:39;1.33;;;0.60;;
76259;SDS011;65076;52.362;6.588;2023-07-31T00:38:07;2.05;;;1.20;;
76259;SDS011;65076;52.362;6.588;2023-07-31T00:40:35;1.65;;;0.98;;
76259;SDS011;65076;52.362;6.588;2023-07-31T00:43:04;2.63;;;1.10;;
76259;SDS011;65076;52.362;6.588;2023-07-31T00:45:32;2.88;;;1.25;;
76259;SDS011;65076;52.362;6.588;2023-07-31T00:48:02;1.88;;;1.02;;
76259;SDS011;65076;52.362;6.588;2023-07-31T00:50:32;2.35;;;0.85;;
76259;SDS011;65076;52.362;6.588;2023-07-31T00:53:02;1.80;;;0.90;;
76259;SDS011;65076;52.362;6.588;2023-07-31T00:55:30;2.10;;;0.70;;
76259;SDS011;65076;52.362;6.588;2023-07-31T00:57:58;1.63;;;0.80;;
76259;SDS011;65076;52.362;6.588;2023-07-31T01:00:26;1.45;;;0.73;;
76259;SDS011;65076;52.362;6.588;2023-07-31T01:02:54;1.70;;;0.50;;
76259;SDS011;65076;52.362;6.588;2023-07-31T01:05:25;1.00;;;0.60;;
76259;SDS011;65076;52.362;6.588;2023-07-31T01:08:08;1.05;;;0.68;;
76259;SDS011;65076;52.362;6.588;2023-07-31T01:10:46;1.20;;;0.50;;
76259;SDS011;65076;52.362;6.588;2023-07-31T01:15:50;1.27;;;0.70;;
76259;SDS011;65076;52.362;6.588;2023-07-31T01:18:18;1.48;;;0.77;;
76259;SDS011;65076;52.362;6.588;2023-07-31T01:20:49;1.23;;;0.70;;
76259;SDS011;65076;52.362;6.588;2023-07-31T01:23:34;1.67;;;0.60;;
76259;SDS011;65076;52.362;6.588;2023-07-31T01:26:27;1.73;;;0.90;;
76259;SDS011;65076;52.362;6.588;2023-07-31T01:29:03;1.38;;;0.60;;
76259;SDS011;65076;52.362;6.588;2023-07-31T01:31:37;1.98;;;0.73;;
76259;SDS011;65076;52.362;6.588;2023-07-31T01:34:09;0.90;;;0.60;;
76259;SDS011;65076;52.362;6.588;2023-07-31T01:36:41;1.30;;;0.80;;
76259;SDS011;65076;52.362;6.588;2023-07-31T01:39:09;1.50;;;0.60;;
76259;SDS011;65076;52.362;6.588;2023-07-31T01:41:38;2.50;;;0.60;;
76259;SDS011;65076;52.362;6.588;2023-07-31T01:44:06;0.90;;;0.68;;
76259;SDS011;65076;52.362;6.588;2023-07-31T01:46:34;0.77;;;0.60;;
76259;SDS011;65076;52.362;6.588;2023-07-31T01:49:02;1.25;;;0.60;;
76259;SDS011;65076;52.362;6.588;2023-07-31T01:51:31;2.00;;;0.70;;
76259;SDS011;65076;52.362;6.588;2023-07-31T01:54:00;1.73;;;0.57;;
76259;SDS011;65076;52.362;6.588;2023-07-31T01:56:28;0.80;;;0.60;;
76259;SDS011;65076;52.362;6.588;2023-07-31T01:58:58;1.00;;;0.40;;
76259;SDS011;65076;52.362;6.588;2023-07-31T02:01:26;0.90;;;0.63;;
76259;SDS011;65076;52.362;6.588;2023-07-31T02:03:54;0.82;;;0.43;;
76259;SDS011;65076;52.362;6.588;2023-07-31T02:06:21;1.73;;;0.60;;
76259;SDS011;65076;52.362;6.588;2023-07-31T02:08:49;0.60;;;0.30;;
76259;SDS011;65076;52.362;6.588;2023-07-31T02:11:18;0.80;;;0.45;;
76259;SDS011;65076;52.362;6.588;2023-07-31T02:13:46;2.03;;;0.63;;
76259;SDS011;65076;52.362;6.588;2023-07-31T02:16:15;0.90;;;0.57;;
76259;SDS011;65076;52.362;6.588;2023-07-31T02:18:43;2.13;;;0.60;;
76259;SDS011;65076;52.362;6.588;2023-07-31T02:21:11;2.60;;;0.47;;
76259;SDS011;65076;52.362;6.588;2023-07-31T02:23:39;1.45;;;0.52;;
76259;SDS011;65076;52.362;6.588;2023-07-31T02:26:07;0.82;;;0.60;;
76259;SDS011;65076;52.362;6.588;2023-07-31T02:28:34;1.42;;;0.47;;
76259;SDS011;65076;52.362;6.588;2023-07-31T02:31:04;0.85;;;0.43;;
76259;SDS011;65076;52.362;6.588;2023-07-31T02:33:33;1.70;;;0.45;;
76259;SDS011;65076;52.362;6.588;2023-07-31T02:36:01;1.42;;;0.47;;
76259;SDS011;65076;52.362;6.588;2023-07-31T02:38:29;0.98;;;0.43;;
76259;SDS011;65076;52.362;6.588;2023-07-31T02:40:56;1.20;;;0.70;;
76259;SDS011;65076;52.362;6.588;2023-07-31T02:43:24;2.97;;;0.68;;
76259;SDS011;65076;52.362;6.588;2023-07-31T02:45:52;1.55;;;0.70;;
76259;SDS011;65076;52.362;6.588;2023-07-31T02:48:21;1.10;;;0.63;;
76259;SDS011;65076;52.362;6.588;2023-07-31T02:50:50;3.55;;;0.70;;
76259;SDS011;65076;52.362;6.588;2023-07-31T02:53:18;1.52;;;0.70;;
76259;SDS011;65076;52.362;6.588;2023-07-31T02:55:46;1.73;;;0.55;;
76259;SDS011;65076;52.362;6.588;2023-07-31T02:58:14;1.63;;;0.82;;
76259;SDS011;65076;52.362;6.588;2023-07-31T03:00:42;3.03;;;1.35;;
76259;SDS011;65076;52.362;6.588;2023-07-31T03:03:10;1.83;;;0.75;;
76259;SDS011;65076;52.362;6.588;2023-07-31T03:05:38;3.33;;;1.15;;
76259;SDS011;65076;52.362;6.588;2023-07-31T03:08:08;1.85;;;1.10;;
76259;SDS011;65076;52.362;6.588;2023-07-31T03:10:35;3.15;;;1.17;;
76259;SDS011;65076;52.362;6.588;2023-07-31T03:13:03;1.50;;;1.05;;
76259;SDS011;65076;52.362;6.588;2023-07-31T03:15:31;2.97;;;1.45;;
76259;SDS011;65076;52.362;6.588;2023-07-31T03:17:59;3.45;;;1.30;;
76259;SDS011;65076;52.362;6.588;2023-07-31T03:20:27;4.28;;;1.50;;
76259;SDS011;65076;52.362;6.588;2023-07-31T03:22:55;2.42;;;1.33;;
76259;SDS011;65076;52.362;6.588;2023-07-31T03:25:25;4.15;;;1.73;;
76259;SDS011;65076;52.362;6.588;2023-07-31T03:27:53;3.95;;;1.27;;
76259;SDS011;65076;52.362;6.588;2023-07-31T03:30:21;2.38;;;1.40;;
76259;SDS011;65076;52.362;6.588;2023-07-31T03:32:49;3.33;;;1.30;;
76259;SDS011;65076;52.362;6.588;2023-07-31T03:35:17;6.53;;;2.00;;
76259;SDS011;65076;52.362;6.588;2023-07-31T03:37:45;3.95;;;1.52;;
76259;SDS011;65076;52.362;6.588;2023-07-31T03:40:14;3.13;;;1.75;;
76259;SDS011;65076;52.362;6.588;2023-07-31T03:42:43;3.13;;;1.88;;
76259;SDS011;65076;52.362;6.588;2023-07-31T03:45:11;5.68;;;1.75;;
76259;SDS011;65076;52.362;6.588;2023-07-31T03:47:39;5.57;;;1.55;;
76259;SDS011;65076;52.362;6.588;2023-07-31T03:50:07;5.60;;;2.20;;
76259;SDS011;65076;52.362;6.588;2023-07-31T03:52:35;6.03;;;2.30;;
76259;SDS011;65076;52.362;6.588;2023-07-31T03:55:03;7.75;;;1.98;;
76259;SDS011;65076;52.362;6.588;2023-07-31T03:57:32;4.43;;;2.03;;
76259;SDS011;65076;52.362;6.588;2023-07-31T04:00:02;7.00;;;2.83;;
76259;SDS011;65076;52.362;6.588;2023-07-31T04:02:30;8.00;;;2.92;;
76259;SDS011;65076;52.362;6.588;2023-07-31T04:04:58;7.93;;;2.92;;
76259;SDS011;65076;52.362;6.588;2023-07-31T04:07:26;4.90;;;2.38;;
76259;SDS011;65076;52.362;6.588;2023-07-31T04:09:55;11.55;;;4.07;;
76259;SDS011;65076;52.362;6.588;2023-07-31T04:12:23;10.35;;;3.60;;
76259;SDS011;65076;52.362;6.588;2023-07-31T04:14:51;8.82;;;3.88;;
76259;SDS011;65076;52.362;6.588;2023-07-31T04:17:20;10.43;;;3.05;;
76259;SDS011;65076;52.362;6.588;2023-07-31T04:19:48;13.65;;;4.40;;
76259;SDS011;65076;52.362;6.588;2023-07-31T04:22:16;11.65;;;3.97;;
76259;SDS011;65076;52.362;6.588;2023-07-31T04:24:44;13.60;;;4.32;;
76259;SDS011;65076;52.362;6.588;2023-07-31T04:27:12;12.38;;;4.78;;
76259;SDS011;65076;52.362;6.588;2023-07-31T04:29:40;13.95;;;4.75;;
76259;SDS011;65076;52.362;6.588;2023-07-31T04:32:10;17.30;;;4.65;;
76259;SDS011;65076;52.362;6.588;2023-07-31T04:34:39;12.98;;;5.20;;
76259;SDS011;65076;52.362;6.588;2023-07-31T04:37:08;13.90;;;4.70;;
76259;SDS011;65076;52.362;6.588;2023-07-31T04:39:36;7.22;;;3.42;;
76259;SDS011;65076;52.362;6.588;2023-07-31T04:42:04;9.98;;;3.60;;
76259;SDS011;65076;52.362;6.588;2023-07-31T04:44:32;12.02;;;5.50;;
76259;SDS011;65076;52.362;6.588;2023-07-31T04:47:00;15.85;;;4.93;;
76259;SDS011;65076;52.362;6.588;2023-07-31T04:49:28;13.02;;;4.70;;
76259;SDS011;65076;52.362;6.588;2023-07-31T04:51:58;14.05;;;5.30;;
76259;SDS011;65076;52.362;6.588;2023-07-31T04:54:26;13.82;;;5.05;;
76259;SDS011;65076;52.362;6.588;2023-07-31T04:56:53;18.83;;;5.13;;
76259;SDS011;65076;52.362;6.588;2023-07-31T04:59:23;19.48;;;5.47;;
76259;SDS011;65076;52.362;6.588;2023-07-31T05:01:50;15.27;;;5.53;;
76259;SDS011;65076;52.362;6.588;2023-07-31T05:04:19;18.48;;;6.68;;
76259;SDS011;65076;52.362;6.588;2023-07-31T05:06:47;18.67;;;5.93;;
76259;SDS011;65076;52.362;6.588;2023-07-31T05:09:16;18.00;;;5.03;;
76259;SDS011;65076;52.362;6.588;2023-07-31T05:11:44;17.80;;;6.40;;
76259;SDS011;65076;52.362;6.588;2023-07-31T05:14:12;14.15;;;6.00;;
76259;SDS011;65076;52.362;6.588;2023-07-31T05:16:42;8.50;;;4.18;;
76259;SDS011;65076;52.362;6.588;2023-07-31T05:19:10;19.75;;;6.05;;
76259;SDS011;65076;52.362;6.588;2023-07-31T05:21:38;19.00;;;7.28;;
76259;SDS011;65076;52.362;6.588;2023-07-31T05:24:06;17.58;;;5.57;;
76259;SDS011;65076;52.362;6.588;2023-07-31T05:26:35;17.40;;;5.20;;
76259;SDS011;65076;52.362;6.588;2023-07-31T05:29:04;14.68;;;5.15;;
76259;SDS011;65076;52.362;6.588;2023-07-31T05:31:32;18.40;;;6.10;;
76259;SDS011;65076;52.362;6.588;2023-07-31T05:34:00;14.75;;;5.80;;
76259;SDS011;65076;52.362;6.588;2023-07-31T05:36:28;15.40;;;6.70;;
76259;SDS011;65076;52.362;6.588;2023-07-31T05:38:56;14.38;;;4.45;;
76259;SDS011;65076;52.362;6.588;2023-07-31T05:41:24;16.90;;;5.75;;
76259;SDS011;65076;52.362;6.588;2023-07-31T05:43:53;17.45;;;4.60;;
76259;SDS011;65076;52.362;6.588;2023-07-31T05:46:21;18.65;;;6.50;;
76259;SDS011;65076;52.362;6.588;2023-07-31T05:48:49;12.40;;;4.18;;
76259;SDS011;65076;52.362;6.588;2023-07-31T05:51:17;13.32;;;4.75;;
76259;SDS011;65076;52.362;6.588;2023-07-31T05:53:45;17.95;;;5.05;;
76259;SDS011;65076;52.362;6.588;2023-07-31T05:56:13;17.02;;;5.05;;
76259;SDS011;65076;52.362;6.588;2023-07-31T05:58:41;14.40;;;5.55;;
76259;SDS011;65076;52.362;6.588;2023-07-31T06:01:11;13.75;;;5.57;;
76259;SDS011;65076;52.362;6.588;2023-07-31T06:03:39;11.73;;;4.85;;
76259;SDS011;65076;52.362;6.588;2023-07-31T06:06:07;15.52;;;6.47;;
76259;SDS011;65076;52.362;6.588;2023-07-31T06:08:35;12.73;;;4.95;;
76259;SDS011;65076;52.362;6.588;2023-07-31T06:11:03;16.98;;;5.45;;
76259;SDS011;65076;52.362;6.588;2023-07-31T06:13:32;14.75;;;4.68;;
76259;SDS011;65076;52.362;6.588;2023-07-31T06:16:01;14.30;;;4.80;;
76259;SDS011;65076;52.362;6.588;2023-07-31T06:18:33;13.02;;;5.03;;
76259;SDS011;65076;52.362;6.588;2023-07-31T06:21:00;13.85;;;4.85;;
76259;SDS011;65076;52.362;6.588;2023-07-31T06:23:28;15.20;;;5.95;;
76259;SDS011;65076;52.362;6.588;2023-07-31T06:25:56;16.08;;;4.60;;
76259;SDS011;65076;52.362;6.588;2023-07-31T06:28:27;12.70;;;5.30;;
76259;SDS011;65076;52.362;6.588;2023-07-31T06:30:56;16.00;;;6.32;;
76259;SDS011;65076;52.362;6.588;2023-07-31T06:33:24;18.17;;;5.75;;
76259;SDS011;65076;52.362;6.588;2023-07-31T06:35:53;15.90;;;5.53;;
76259;SDS011;65076;52.362;6.588;2023-07-31T06:38:22;11.10;;;4.82;;
76259;SDS011;65076;52.362;6.588;2023-07-31T06:40:53;11.30;;;4.35;;
76259;SDS011;65076;52.362;6.588;2023-07-31T06:43:21;12.38;;;4.75;;
76259;SDS011;65076;52.362;6.588;2023-07-31T06:45:48;14.77;;;5.80;;
76259;SDS011;65076;52.362;6.588;2023-07-31T06:48:17;15.68;;;4.90;;
76259;SDS011;65076;52.362;6.588;2023-07-31T06:50:45;11.52;;;5.07;;
76259;SDS011;65076;52.362;6.588;2023-07-31T06:53:15;13.23;;;4.50;;
76259;SDS011;65076;52.362;6.588;2023-07-31T06:55:42;12.43;;;4.47;;
76259;SDS011;65076;52.362;6.588;2023-07-31T06:58:11;8.98;;;4.35;;
76259;SDS011;65076;52.362;6.588;2023-07-31T07:00:39;12.25;;;4.32;;
76259;SDS011;65076;52.362;6.588;2023-07-31T07:03:07;9.95;;;4.40;;
76259;SDS011;65076;52.362;6.588;2023-07-31T07:05:34;11.57;;;3.65;;
76259;SDS011;65076;52.362;6.588;2023-07-31T07:08:03;6.82;;;3.20;;
76259;SDS011;65076;52.362;6.588;2023-07-31T07:10:32;7.82;;;3.50;;
76259;SDS011;65076;52.362;6.588;2023-07-31T07:13:00;10.80;;;3.10;;
76259;SDS011;65076;52.362;6.588;2023-07-31T07:15:28;7.25;;;3.33;;
76259;SDS011;65076;52.362;6.588;2023-07-31T07:17:56;6.10;;;4.00;;
76259;SDS011;65076;52.362;6.588;2023-07-31T07:20:24;8.93;;;2.88;;
76259;SDS011;65076;52.362;6.588;2023-07-31T07:22:52;9.30;;;3.63;;
76259;SDS011;65076;52.362;6.588;2023-07-31T07:25:20;8.80;;;2.70;;
76259;SDS011;65076;52.362;6.588;2023-07-31T07:27:50;5.00;;;2.22;;
76259;SDS011;65076;52.362;6.588;2023-07-31T07:30:17;7.35;;;2.72;;
76259;SDS011;65076;52.362;6.588;2023-07-31T07:32:46;7.07;;;2.53;;
76259;SDS011;65076;52.362;6.588;2023-07-31T07:35:14;7.20;;;2.70;;
76259;SDS011;65076;52.362;6.588;2023-07-31T07:37:42;5.25;;;2.35;;
76259;SDS011;65076;52.362;6.588;2023-07-31T07:40:10;6.57;;;2.42;;
76259;SDS011;65076;52.362;6.588;2023-07-31T07:42:38;6.20;;;2.40;;
76259;SDS011;65076;52.362;6.588;2023-07-31T07:45:08;5.07;;;2.15;;
76259;SDS011;65076;52.362;6.588;2023-07-31T07:47:37;5.30;;;2.28;;
76259;SDS011;65076;52.362;6.588;2023-07-31T07:50:06;6.53;;;2.33;;
76259;SDS011;65076;52.362;6.588;2023-07-31T07:52:35;6.35;;;2.08;;
76259;SDS011;65076;52.362;6.588;2023-07-31T07:55:03;4.40;;;2.00;;
76259;SDS011;65076;52.362;6.588;2023-07-31T07:57:32;4.72;;;2.03;;
76259;SDS011;65076;52.362;6.588;2023-07-31T08:00:00;6.00;;;1.90;;
76259;SDS011;65076;52.362;6.588;2023-07-31T08:02:29;2.70;;;1.70;;
76259;SDS011;65076;52.362;6.588;2023-07-31T08:04:57;3.95;;;1.83;;
76259;SDS011;65076;52.362;6.588;2023-07-31T08:07:25;3.85;;;1.40;;
76259;SDS011;65076;52.362;6.588;2023-07-31T08:09:54;3.13;;;1.40;;
76259;SDS011;65076;52.362;6.588;2023-07-31T08:12:21;4.30;;;1.42;;
76259;SDS011;65076;52.362;6.588;2023-07-31T08:14:49;3.47;;;1.30;;
76259;SDS011;65076;52.362;6.588;2023-07-31T08:17:17;5.03;;;1.48;;
76259;SDS011;65076;52.362;6.588;2023-07-31T08:19:47;2.67;;;1.25;;
76259;SDS011;65076;52.362;6.588;2023-07-31T08:22:15;2.92;;;1.35;;
76259;SDS011;65076;52.362;6.588;2023-07-31T08:24:43;2.70;;;1.05;;
76259;SDS011;65076;52.362;6.588;2023-07-31T08:27:10;3.58;;;1.45;;
76259;SDS011;65076;52.362;6.588;2023-07-31T08:29:39;1.88;;;1.20;;
76259;SDS011;65076;52.362;6.588;2023-07-31T08:32:07;1.88;;;0.93;;
76259;SDS011;65076;52.362;6.588;2023-07-31T08:34:35;3.67;;;1.42;;
76259;SDS011;65076;52.362;6.588;2023-07-31T08:37:04;2.88;;;1.10;;
76259;SDS011;65076;52.362;6.588;2023-07-31T08:42:00;1.75;;;0.73;;
76259;SDS011;65076;52.362;6.588;2023-07-31T08:44:29;0.50;;;0.50;;
76259;SDS011;65076;52.362;6.588;2023-07-31T08:46:59;1.10;;;0.50;;
76259;SDS011;65076;52.362;6.588;2023-07-31T08:49:30;1.80;;;0.90;;
76259;SDS011;65076;52.362;6.588;2023-07-31T08:51:59;0.75;;;0.50;;
76259;SDS011;65076;52.362;6.588;2023-07-31T08:54:28;3.35;;;0.80;;
76259;SDS011;65076;52.362;6.588;2023-07-31T08:56:59;1.20;;;0.60;;
76259;SDS011;65076;52.362;6.588;2023-07-31T08:59:29;1.33;;;0.40;;
76259;SDS011;65076;52.362;6.588;2023-07-31T09:02:03;0.70;;;0.50;;
76259;SDS011;65076;52.362;6.588;2023-07-31T09:04:35;1.08;;;0.60;;
76259;SDS011;65076;52.362;6.588;2023-07-31T09:07:03;0.68;;;0.40;;
76259;SDS011;65076;52.362;6.588;2023-07-31T09:09:35;0.90;;;0.45;;
76259;SDS011;65076;52.362;6.588;2023-07-31T09:12:03;0.52;;;0.30;;
76259;SDS011;65076;52.362;6.588;2023-07-31T09:14:34;0.93;;;0.40;;
76259;SDS011;65076;52.362;6.588;2023-07-31T09:19:33;0.60;;;0.47;;
76259;SDS011;65076;52.362;6.588;2023-07-31T09:22:03;0.55;;;0.32;;
76259;SDS011;65076;52.362;6.588;2023-07-31T09:24:33;0.55;;;0.40;;
76259;SDS011;65076;52.362;6.588;2023-07-31T09:27:03;1.38;;;0.45;;
76259;SDS011;65076;52.362;6.588;2023-07-31T09:29:33;2.35;;;1.33;;
76259;SDS011;65076;52.362;6.588;2023-07-31T09:32:01;0.60;;;0.40;;
76259;SDS011;65076;52.362;6.588;2023-07-31T09:34:30;0.40;;;0.30;;
76259;SDS011;65076;52.362;6.588;2023-07-31T09:37:05;0.80;;;0.60;;
76259;SDS011;65076;52.362;6.588;2023-07-31T09:39:34;1.05;;;0.60;;
76259;SDS011;65076;52.362;6.588;2023-07-31T09:42:14;0.57;;;0.47;;
76259;SDS011;65076;52.362;6.588;2023-07-31T09:44:54;0.80;;;0.60;;
76259;SDS011;65076;52.362;6.588;2023-07-31T09:47:35;0.93;;;0.40;;
76259;SDS011;65076;52.362;6.588;2023-07-31T09:50:06;0.80;;;0.50;;
76259;SDS011;65076;52.362;6.588;2023-07-31T09:52:37;1.55;;;0.73;;
76259;SDS011;65076;52.362;6.588;2023-07-31T09:55:07;0.90;;;0.70;;
76259;SDS011;65076;52.362;6.588;2023-07-31T09:57:36;1.27;;;0.93;;
76259;SDS011;65076;52.362;6.588;2023-07-31T10:00:09;1.10;;;0.70;;
76259;SDS011;65076;52.362;6.588;2023-07-31T10:02:39;1.52;;;1.00;;
76259;SDS011;65076;52.362;6.588;2023-07-31T10:05:08;3.17;;;1.30;;
76259;SDS011;65076;52.362;6.588;2023-07-31T10:07:38;1.75;;;0.90;;
76259;SDS011;65076;52.362;6.588;2023-07-31T10:10:10;2.97;;;1.17;;
76259;SDS011;65076;52.362;6.588;2023-07-31T10:12:41;1.45;;;0.70;;
76259;SDS011;65076;52.362;6.588;2023-07-31T10:15:14;1.45;;;1.02;;
76259;SDS011;65076;52.362;6.588;2023-07-31T10:17:42;0.82;;;0.60;;
76259;SDS011;65076;52.362;6.588;2023-07-31T10:20:11;1.75;;;0.98;;
76259;SDS011;65076;52.362;6.588;2023-07-31T10:22:42;2.40;;;1.20;;
76259;SDS011;65076;52.362;6.588;2023-07-31T10:25:15;1.38;;;1.10;;
76259;SDS011;65076;52.362;6.588;2023-07-31T10:27:43;1.92;;;1.10;;
76259;SDS011;65076;52.362;6.588;2023-07-31T10:30:17;1.70;;;1.35;;
76259;SDS011;65076;52.362;6.588;2023-07-31T10:32:50;2.50;;;1.27;;
76259;SDS011;65076;52.362;6.588;2023-07-31T10:35:20;2.33;;;1.40;;
76259;SDS011;65076;52.362;6.588;2023-07-31T10:37:49;1.92;;;1.35;;
76259;SDS011;65076;52.362;6.588;2023-07-31T10:40:23;2.10;;;0.80;;
76259;SDS011;65076;52.362;6.588;2023-07-31T10:42:55;2.25;;;1.30;;
76259;SDS011;65076;52.362;6.588;2023-07-31T10:45:25;2.13;;;1.30;;
76259;SDS011;65076;52.362;6.588;2023-07-31T10:47:58;1.90;;;1.15;;
76259;SDS011;65076;52.362;6.588;2023-07-31T10:50:28;1.63;;;1.30;;
76259;SDS011;65076;52.362;6.588;2023-07-31T10:52:59;1.92;;;1.10;;
76259;SDS011;65076;52.362;6.588;2023-07-31T10:55:30;2.35;;;1.35;;
76259;SDS011;65076;52.362;6.588;2023-07-31T10:58:07;1.75;;;1.17;;
76259;SDS011;65076;52.362;6.588;2023-07-31T11:00:37;2.45;;;1.73;;
76259;SDS011;65076;52.362;6.588;2023-07-31T11:03:07;2.92;;;2.00;;
76259;SDS011;65076;52.362;6.588;2023-07-31T11:05:42;2.72;;;2.25;;
76259;SDS011;65076;52.362;6.588;2023-07-31T11:08:21;2.30;;;1.75;;
76259;SDS011;65076;52.362;6.588;2023-07-31T11:11:04;3.97;;;2.70;;
76259;SDS011;65076;52.362;6.588;2023-07-31T11:13:39;3.55;;;2.30;;
76259;SDS011;65076;52.362;6.588;2023-07-31T11:16:10;4.10;;;2.80;;
76259;SDS011;65076;52.362;6.588;2023-07-31T11:18:40;3.10;;;2.22;;
76259;SDS011;65076;52.362;6.588;2023-07-31T11:21:11;4.13;;;2.90;;
76259;SDS011;65076;52.362;6.588;2023-07-31T11:23:41;4.55;;;2.80;;
76259;SDS011;65076;52.362;6.588;2023-07-31T11:26:14;4.30;;;3.35;;
76259;SDS011;65076;52.362;6.588;2023-07-31T11:28:43;3.63;;;3.20;;
76259;SDS011;65076;52.362;6.588;2023-07-31T11:31:14;4.72;;;3.90;;
76259;SDS011;65076;52.362;6.588;2023-07-31T11:33:43;4.30;;;3.63;;
76259;SDS011;65076;52.362;6.588;2023-07-31T11:36:13;3.28;;;2.92;;
76259;SDS011;65076;52.362;6.588;2023-07-31T11:38:43;7.47;;;4.13;;
76259;SDS011;65076;52.362;6.588;2023-07-31T11:41:13;8.27;;;4.45;;
76259;SDS011;65076;52.362;6.588;2023-07-31T11:43:44;6.75;;;4.07;;
76259;SDS011;65076;52.362;6.588;2023-07-31T11:46:13;6.40;;;4.80;;
76259;SDS011;65076;52.362;6.588;2023-07-31T11:48:42;4.57;;;4.05;;
76259;SDS011;65076;52.362;6.588;2023-07-31T11:51:10;4.95;;;3.85;;
76259;SDS011;65076;52.362;6.588;2023-07-31T11:53:42;6.30;;;5.07;;
76259;SDS011;65076;52.362;6.588;2023-07-31T11:56:13;6.82;;;4.43;;
76259;SDS011;65076;52.362;6.588;2023-07-31T11:58:45;4.72;;;4.07;;
76259;SDS011;65076;52.362;6.588;2023-07-31T12:01:15;5.38;;;4.72;;
76259;SDS011;65076;52.362;6.588;2023-07-31T12:03:47;3.97;;;3.58;;
76259;SDS011;65076;52.362;6.588;2023-07-31T12:06:17;7.05;;;5.25;;
76259;SDS011;65076;52.362;6.588;2023-07-31T12:08:47;6.97;;;4.68;;
76259;SDS011;65076;52.362;6.588;2023-07-31T12:11:17;8.23;;;5.35;;
76259;SDS011;65076;52.362;6.588;2023-07-31T12:13:45;9.93;;;5.43;;
76259;SDS011;65076;52.362;6.588;2023-07-31T12:16:12;6.50;;;5.40;;
76259;SDS011;65076;52.362;6.588;2023-07-31T12:18:41;5.93;;;4.00;;
76259;SDS011;65076;52.362;6.588;2023-07-31T12:21:09;6.53;;;4.57;;
76259;SDS011;65076;52.362;6.588;2023-07-31T12:23:37;5.28;;;4.65;;
76259;SDS011;65076;52.362;6.588;2023-07-31T12:26:08;6.97;;;5.15;;
76259;SDS011;65076;52.362;6.588;2023-07-31T12:28:42;7.18;;;4.53;;
76259;SDS011;65076;52.362;6.588;2023-07-31T12:31:14;5.40;;;4.15;;
76259;SDS011;65076;52.362;6.588;2023-07-31T12:33:44;6.53;;;4.05;;
76259;SDS011;65076;52.362;6.588;2023-07-31T12:36:16;6.35;;;4.90;;
76259;SDS011;65076;52.362;6.588;2023-07-31T12:38:45;4.88;;;4.38;;
76259;SDS011;65076;52.362;6.588;2023-07-31T12:41:13;4.53;;;3.42;;
76259;SDS011;65076;52.362;6.588;2023-07-31T12:43:44;6.15;;;4.13;;
76259;SDS011;65076;52.362;6.588;2023-07-31T12:46:12;4.22;;;3.80;;
76259;SDS011;65076;52.362;6.588;2023-07-31T12:48:41;6.28;;;4.35;;
76259;SDS011;65076;52.362;6.588;2023-07-31T12:51:09;4.95;;;2.90;;
76259;SDS011;65076;52.362;6.588;2023-07-31T12:53:37;3.47;;;3.00;;
76259;SDS011;65076;52.362;6.588;2023-07-31T12:56:05;4.65;;;3.78;;
76259;SDS011;65076;52.362;6.588;2023-07-31T12:58:33;5.75;;;3.38;;
76259;SDS011;65076;52.362;6.588;2023-07-31T13:01:03;5.00;;;3.40;;
76259;SDS011;65076;52.362;6.588;2023-07-31T13:03:32;4.70;;;3.13;;
76259;SDS011;65076;52.362;6.588;2023-07-31T13:06:00;7.72;;;4.03;;
76259;SDS011;65076;52.362;6.588;2023-07-31T13:08:28;4.78;;;3.40;;
76259;SDS011;65076;52.362;6.588;2023-07-31T13:10:56;4.93;;;3.67;;
76259;SDS011;65076;52.362;6.588;2023-07-31T13:13:24;5.90;;;4.15;;
76259;SDS011;65076;52.362;6.588;2023-07-31T13:15:54;7.22;;;4.00;;
76259;SDS011;65076;52.362;6.588;2023-07-31T13:18:24;6.28;;;4.38;;
76259;SDS011;65076;52.362;6.588;2023-07-31T13:20:52;7.35;;;4.90;;
76259;SDS011;65076;52.362;6.588;2023-07-31T13:23:19;6.40;;;4.57;;
76259;SDS011;65076;52.362;6.588;2023-07-31T13:25:49;5.53;;;4.32;;
76259;SDS011;65076;52.362;6.588;2023-07-31T13:28:17;5.72;;;3.78;;
76259;SDS011;65076;52.362;6.588;2023-07-31T13:30:45;8.20;;;4.78;;
76259;SDS011;65076;52.362;6.588;2023-07-31T13:33:14;7.03;;;5.45;;
76259;SDS011;65076;52.362;6.588;2023-07-31T13:36:02;7.45;;;4.60;;
76259;SDS011;65076;52.362;6.588;2023-07-31T13:38:30;6.35;;;4.90;;
76259;SDS011;65076;52.362;6.588;2023-07-31T13:40:58;7.72;;;5.47;;
76259;SDS011;65076;52.362;6.588;2023-07-31T13:43:26;5.28;;;3.83;;
76259;SDS011;65076;52.362;6.588;2023-07-31T13:45:54;5.90;;;4.65;;
76259;SDS011;65076;52.362;6.588;2023-07-31T13:48:22;6.53;;;4.68;;
76259;SDS011;65076;52.362;6.588;2023-07-31T13:50:50;5.28;;;4.50;;
76259;SDS011;65076;52.362;6.588;2023-07-31T13:53:19;7.03;;;4.85;;
76259;SDS011;65076;52.362;6.588;2023-07-31T13:55:47;5.78;;;4.07;;
76259;SDS011;65076;52.362;6.588;2023-07-31T13:58:15;4.00;;;2.97;;
76259;SDS011;65076;52.362;6.588;2023-07-31T14:00:43;7.47;;;3.67;;
76259;SDS011;65076;52.362;6.588;2023-07-31T14:03:11;5.30;;;3.42;;
76259;SDS011;65076;52.362;6.588;2023-07-31T14:05:39;5.50;;;3.72;;
76259;SDS011;65076;52.362;6.588;2023-07-31T14:08:07;3.97;;;2.80;;
76259;SDS011;65076;52.362;6.588;2023-07-31T14:10:37;4.68;;;3.03;;
76259;SDS011;65076;52.362;6.588;2023-07-31T14:13:05;4.65;;;3.15;;
76259;SDS011;65076;52.362;6.588;2023-07-31T14:15:33;5.93;;;3.40;;
76259;SDS011;65076;52.362;6.588;2023-07-31T14:18:02;5.70;;;3.80;;
76259;SDS011;65076;52.362;6.588;2023-07-31T14:20:30;5.70;;;3.38;;
76259;SDS011;65076;52.362;6.588;2023-07-31T14:22:58;3.97;;;3.53;;
76259;SDS011;65076;52.362;6.588;2023-07-31T14:28:28;4.70;;;3.35;;
76259;SDS011;65076;52.362;6.588;2023-07-31T14:31:13;5.90;;;4.22;;
76259;SDS011;65076;52.362;6.588;2023-07-31T14:33:47;5.78;;;3.95;;
76259;SDS011;65076;52.362;6.588;2023-07-31T14:36:15;8.88;;;4.20;;
76259;SDS011;65076;52.362;6.588;2023-07-31T14:41:16;5.30;;;4.15;;
76259;SDS011;65076;52.362;6.588;2023-07-31T14:43:45;5.72;;;4.32;;
76259;SDS011;65076;52.362;6.588;2023-07-31T14:46:12;7.20;;;4.22;;
76259;SDS011;65076;52.362;6.588;2023-07-31T14:48:41;6.43;;;3.92;;
76259;SDS011;65076;52.362;6.588;2023-07-31T14:51:09;7.38;;;4.93;;
76259;SDS011;65076;52.362;6.588;2023-07-31T14:53:37;6.05;;;4.53;;
76259;SDS011;65076;52.362;6.588;2023-07-31T14:56:05;7.00;;;4.43;;
76259;SDS011;65076;52.362;6.588;2023-07-31T14:58:34;6.78;;;4.93;;
76259;SDS011;65076;52.362;6.588;2023-07-31T15:01:02;6.82;;;4.55;;
76259;SDS011;65076;52.362;6.588;2023-07-31T15:03:30;5.22;;;3.95;;
76259;SDS011;65076;52.362;6.588;2023-07-31T15:05:59;6.70;;;5.15;;
76259;SDS011;65076;52.362;6.588;2023-07-31T15:08:27;6.82;;;5.10;;
76259;SDS011;65076;52.362;6.588;2023-07-31T15:10:55;6.40;;;4.80;;